Time;durP1;ratioP1;P1;durP2;ratioP2;P2;SDS_P1;SDS_P2;PMS_P1;PMS_P2;Temp;Humidity;BMP_temperature;BMP_pressure;BME280_temperature;BME280_humidity;BME280_pressure;Samples;Min_cycle;Max_cycle;Signal;HPM_P1;HPM_P2
2023/08/11 15:03:25;;;;;;;;;;;;;;;;;;2640027;19;407063785;31
2023/08/11 15:05:50;;;;;;;7.05;2.28;;;;;;;;;;7357328;19;19939;-75
2023/08/11 15:08:15;;;;;;;5.40;2.57;;;;;;;;;;7353249;19;20374;-75
2023/08/11 15:10:41;;;;;;;6.00;2.30;;;;;;;;;;7353990;19;20224;-74
2023/08/11 15:13:06;;;;;;;6.07;2.10;;;;;;;;;;7354164;19;20444;-76
2023/08/11 15:15:31;;;;;;;5.90;2.70;;;;;;;;;;7327583;19;20090;-75
2023/08/11 15:17:57;;;;;;;6.27;2.20;;;;;;;;;;7351586;19;20231;-74
2023/08/11 15:20:22;;;;;;;4.87;2.20;;;;;;;;;;7346569;19;20427;-75
2023/08/11 15:22:49;;;;;;;4.53;2.40;;;;;;;;;;7346320;19;19999;-76
2023/08/11 15:25:14;;;;;;;4.82;2.28;;;;;;;;;;7351760;19;20007;-75
2023/08/11 15:27:39;;;;;;;5.03;2.20;;;;;;;;;;7356414;19;20032;-76
2023/08/11 15:30:05;;;;;;;4.73;2.33;;;;;;;;;;7348773;19;20258;-76
2023/08/11 15:32:31;;;;;;;13.45;2.78;;;;;;;;;;7356649;19;20015;-75
2023/08/11 15:34:56;;;;;;;6.47;2.47;;;;;;;;;;7349970;19;20051;-75
2023/08/11 15:37:21;;;;;;;4.50;2.00;;;;;;;;;;7356048;19;20066;-74
2023/08/11 15:39:46;;;;;;;6.23;2.10;;;;;;;;;;7350649;19;20063;-75
2023/08/11 15:42:11;;;;;;;4.77;2.40;;;;;;;;;;7357418;19;20243;-75
2023/08/11 15:44:36;;;;;;;6.50;2.43;;;;;;;;;;7352828;19;20002;-75
2023/08/11 15:47:02;;;;;;;6.93;2.83;;;;;;;;;;7357496;19;20569;-77
2023/08/11 15:49:27;;;;;;;5.33;2.57;;;;;;;;;;7365247;19;20400;-74
2023/08/11 15:51:55;;;;;;;5.60;2.80;;;;;;;;;;7364771;19;20092;-76
2023/08/11 15:54:21;;;;;;;7.85;2.95;;;;;;;;;;7361911;19;20772;-75
2023/08/11 15:56:46;;;;;;;5.90;2.65;;;;;;;;;;7363782;19;20434;-74
2023/08/11 15:59:11;;;;;;;5.20;2.43;;;;;;;;;;7328986;19;20354;-74
2023/08/11 16:01:37;;;;;;;6.87;2.37;;;;;;;;;;7343563;19;20002;-75
2023/08/11 16:04:03;;;;;;;4.63;2.40;;;;;;;;;;7361129;19;20002;-75
2023/08/11 16:06:28;;;;;;;6.40;2.47;;;;;;;;;;7365658;19;20465;-76
2023/08/11 16:08:53;;;;;;;5.65;2.28;;;;;;;;;;7359347;19;20054;-75
2023/08/11 16:11:18;;;;;;;4.90;2.57;;;;;;;;;;7364002;19;20001;-76
2023/08/11 16:13:44;;;;;;;5.97;2.60;;;;;;;;;;7364531;19;20475;-75
2023/08/11 16:16:10;;;;;;;5.97;2.78;;;;;;;;;;7349643;19;20517;-74
2023/08/11 16:18:35;;;;;;;6.68;2.50;;;;;;;;;;7350857;19;20010;-76
2023/08/11 16:21:05;;;;;;;8.25;2.67;;;;;;;;;;7333166;19;20023;-75
2023/08/11 16:23:31;;;;;;;8.13;2.85;;;;;;;;;;7363820;19;20103;-77
2023/08/11 16:25:56;;;;;;;7.72;2.50;;;;;;;;;;7358858;19;20012;-75
2023/08/11 16:28:22;;;;;;;4.97;2.63;;;;;;;;;;7341643;19;20010;-75
2023/08/11 16:30:47;;;;;;;7.50;3.27;;;;;;;;;;7354533;19;20003;-74
2023/08/11 16:33:12;;;;;;;8.93;3.00;;;;;;;;;;7359928;19;20002;-76
2023/08/11 16:35:37;;;;;;;7.27;2.83;;;;;;;;;;7357615;19;20204;-75
2023/08/11 16:38:04;;;;;;;5.43;2.80;;;;;;;;;;7349569;19;20314;-75
2023/08/11 16:40:29;;;;;;;8.13;2.75;;;;;;;;;;7334112;19;20026;-75
2023/08/11 16:42:55;;;;;;;7.30;3.25;;;;;;;;;;7348052;19;19999;-76
2023/08/11 16:45:20;;;;;;;9.05;2.80;;;;;;;;;;7344641;19;20371;-76
2023/08/11 16:47:45;;;;;;;6.00;2.93;;;;;;;;;;7348700;19;20019;-76
2023/08/11 16:50:10;;;;;;;4.57;2.50;;;;;;;;;;7341606;19;20015;-76
2023/08/11 16:52:35;;;;;;;5.03;2.77;;;;;;;;;;7355054;19;20473;-76
2023/08/11 16:55:01;;;;;;;6.23;2.70;;;;;;;;;;7352307;19;20355;-74
2023/08/11 16:57:26;;;;;;;7.03;3.17;;;;;;;;;;7356353;19;20031;-76
2023/08/11 16:59:51;;;;;;;8.83;3.13;;;;;;;;;;7315022;19;21012;-73
2023/08/11 17:02:16;;;;;;;6.17;2.90;;;;;;;;;;7244075;19;20009;-76
2023/08/11 17:04:41;;;;;;;5.40;3.13;;;;;;;;;;7257538;19;20471;-75
2023/08/11 17:07:07;;;;;;;11.07;3.13;;;;;;;;;;7264065;19;20945;-75
2023/08/11 17:09:32;;;;;;;8.00;3.10;;;;;;;;;;7262899;19;20819;-75
2023/08/11 17:11:57;;;;;;;5.27;2.70;;;;;;;;;;7264911;19;20471;-75
2023/08/11 17:14:22;;;;;;;7.90;3.07;;;;;;;;;;7256436;19;20354;-75
2023/08/11 17:16:47;;;;;;;8.97;3.07;;;;;;;;;;7262039;19;20715;-76
2023/08/11 17:19:13;;;;;;;6.93;2.90;;;;;;;;;;7257715;19;20243;-75
2023/08/11 17:21:38;;;;;;;7.53;2.83;;;;;;;;;;7252013;19;20415;-73
2023/08/11 17:24:04;;;;;;;6.38;3.08;;;;;;;;;;7262798;19;20007;-74
2023/08/11 17:26:29;;;;;;;6.32;3.40;;;;;;;;;;7258334;19;20460;-74
2023/08/11 17:28:55;;;;;;;6.23;3.60;;;;;;;;;;7252438;19;20647;-74
2023/08/11 17:31:22;;;;;;;6.18;3.15;;;;;;;;;;7259262;19;20026;-74
2023/08/11 17:33:47;;;;;;;9.80;3.30;;;;;;;;;;7247694;19;20006;-74
2023/08/11 17:36:12;;;;;;;7.32;3.10;;;;;;;;;;7248574;19;20482;-74
2023/08/11 17:38:37;;;;;;;6.00;3.30;;;;;;;;;;7246891;19;20021;-74
2023/08/11 17:41:03;;;;;;;5.38;2.75;;;;;;;;;;7254793;19;20935;-74
2023/08/11 17:43:28;;;;;;;6.10;3.10;;;;;;;;;;7249572;19;20010;-73
2023/08/11 17:45:53;;;;;;;7.47;3.43;;;;;;;;;;7256230;19;20834;-76
2023/08/11 17:48:18;;;;;;;6.30;3.40;;;;;;;;;;7264563;19;20006;-76
2023/08/11 17:50:43;;;;;;;6.00;3.00;;;;;;;;;;7275602;19;20663;-76
2023/08/11 17:53:09;;;;;;;6.97;3.50;;;;;;;;;;7270733;19;20813;-76
2023/08/11 17:55:34;;;;;;;8.27;3.10;;;;;;;;;;7271534;19;20003;-75
2023/08/11 17:57:59;;;;;;;5.70;2.83;;;;;;;;;;7269733;19;20226;-75
2023/08/11 18:00:24;;;;;;;8.63;3.20;;;;;;;;;;7322764;19;20010;-76
2023/08/11 18:02:50;;;;;;;7.07;3.03;;;;;;;;;;7361808;19;20350;-76
2023/08/11 18:05:15;;;;;;;8.77;3.10;;;;;;;;;;7359797;19;20014;-76
2023/08/11 18:07:40;;;;;;;8.63;3.15;;;;;;;;;;7359278;19;20002;-76
2023/08/11 18:10:06;;;;;;;6.27;3.30;;;;;;;;;;7363768;19;20010;-75
2023/08/11 18:12:31;;;;;;;8.77;3.72;;;;;;;;;;7364129;19;20092;-76
2023/08/11 18:14:57;;;;;;;6.60;3.50;;;;;;;;;;7354955;19;20005;-75
2023/08/11 18:17:23;;;;;;;12.60;3.60;;;;;;;;;;7361028;19;20043;-76
2023/08/11 18:19:48;;;;;;;8.88;3.75;;;;;;;;;;7364939;19;20007;-75
2023/08/11 18:22:13;;;;;;;8.10;3.33;;;;;;;;;;7361163;19;20024;-76
2023/08/11 18:24:39;;;;;;;6.73;3.20;;;;;;;;;;7359022;19;19999;-76
2023/08/11 18:27:04;;;;;;;6.93;3.77;;;;;;;;;;7359087;19;20895;-76
2023/08/11 18:29:29;;;;;;;9.77;3.63;;;;;;;;;;7356628;19;20669;-76
2023/08/11 18:31:54;;;;;;;7.23;3.37;;;;;;;;;;7363532;19;20003;-76
2023/08/11 18:34:19;;;;;;;10.40;4.00;;;;;;;;;;7361810;19;20573;-75
2023/08/11 18:36:45;;;;;;;7.15;3.53;;;;;;;;;;7363745;19;20003;-75
2023/08/11 18:39:10;;;;;;;8.20;3.60;;;;;;;;;;7359284;19;20054;-76
2023/08/11 18:41:36;;;;;;;7.63;3.88;;;;;;;;;;7364482;19;20004;-76
2023/08/11 18:44:01;;;;;;;5.57;3.30;;;;;;;;;;7357583;19;20009;-76
2023/08/11 18:46:27;;;;;;;6.75;3.22;;;;;;;;;;7363763;19;20027;-76
2023/08/11 18:48:52;;;;;;;8.27;3.43;;;;;;;;;;7362726;19;20007;-77
2023/08/11 18:51:17;;;;;;;6.70;3.70;;;;;;;;;;7359249;19;20086;-76
2023/08/11 18:53:42;;;;;;;7.47;3.57;;;;;;;;;;7361227;19;20288;-76
2023/08/11 18:56:07;;;;;;;9.25;3.55;;;;;;;;;;7357944;19;20817;-76
2023/08/11 18:58:33;;;;;;;7.97;3.78;;;;;;;;;;7360030;19;20006;-75
2023/08/11 19:00:58;;;;;;;6.30;3.23;;;;;;;;;;7349630;19;20464;-75
2023/08/11 19:03:23;;;;;;;9.70;3.63;;;;;;;;;;7358038;19;20243;-77
2023/08/11 19:05:48;;;;;;;8.00;3.63;;;;;;;;;;7361823;19;20235;-76
2023/08/11 19:08:13;;;;;;;6.20;3.72;;;;;;;;;;7360728;19;20536;-76
2023/08/11 19:10:38;;;;;;;6.20;3.70;;;;;;;;;;7360937;19;20001;-75
2023/08/11 19:13:04;;;;;;;6.33;3.70;;;;;;;;;;7352423;19;20612;-75
2023/08/11 19:15:29;;;;;;;7.30;3.87;;;;;;;;;;7361782;19;19999;-75
2023/08/11 19:17:54;;;;;;;7.60;3.70;;;;;;;;;;7369704;19;20315;-76
2023/08/11 19:20:19;;;;;;;8.03;3.50;;;;;;;;;;7367538;19;20427;-75
2023/08/11 19:22:45;;;;;;;12.30;3.70;;;;;;;;;;7370104;19;20049;-75
2023/08/11 19:25:11;;;;;;;6.75;3.60;;;;;;;;;;7364310;19;20459;-76
2023/08/11 19:27:36;;;;;;;5.93;3.50;;;;;;;;;;7368454;19;20002;-74
2023/08/11 19:30:02;;;;;;;7.83;3.93;;;;;;;;;;7364269;19;20069;-75
2023/08/11 19:32:28;;;;;;;6.90;3.45;;;;;;;;;;7366296;19;20096;-75
2023/08/11 19:34:53;;;;;;;6.70;3.43;;;;;;;;;;7368776;19;20095;-75
2023/08/11 19:37:18;;;;;;;7.05;3.60;;;;;;;;;;7364907;19;20284;-75
2023/08/11 19:39:43;;;;;;;7.20;3.77;;;;;;;;;;7369861;19;20518;-75
2023/08/11 19:42:08;;;;;;;9.68;3.70;;;;;;;;;;7361596;19;20640;-75
2023/08/11 19:44:34;;;;;;;6.73;3.70;;;;;;;;;;7363588;19;20066;-74
2023/08/11 19:46:59;;;;;;;6.88;3.85;;;;;;;;;;7369696;19;20429;-74
2023/08/11 19:49:24;;;;;;;8.57;3.57;;;;;;;;;;7365011;19;20050;-74
2023/08/11 19:51:49;;;;;;;7.75;3.78;;;;;;;;;;7370581;19;20006;-74
2023/08/11 19:54:15;;;;;;;11.40;5.03;;;;;;;;;;7363163;19;20484;-74
2023/08/11 19:56:42;;;;;;;9.03;4.30;;;;;;;;;;7367584;19;20311;-74
2023/08/11 19:59:07;;;;;;;8.90;4.43;;;;;;;;;;7361551;19;20524;-73
2023/08/11 20:01:32;;;;;;;10.33;4.03;;;;;;;;;;7358339;19;20003;-73
2023/08/11 20:03:57;;;;;;;7.43;4.05;;;;;;;;;;7369561;19;20003;-76
2023/08/11 20:06:23;;;;;;;9.83;3.83;;;;;;;;;;7359874;19;19995;-76
2023/08/11 20:08:48;;;;;;;8.07;3.77;;;;;;;;;;7368798;19;20019;-74
2023/08/11 20:11:13;;;;;;;7.70;4.10;;;;;;;;;;7366556;19;20006;-76
2023/08/11 20:13:38;;;;;;;7.63;3.87;;;;;;;;;;7368605;19;20309;-76
2023/08/11 20:16:04;;;;;;;7.17;3.77;;;;;;;;;;7365274;19;20178;-76
2023/08/11 20:18:29;;;;;;;10.82;4.30;;;;;;;;;;7363389;19;20355;-76
2023/08/11 20:20:54;;;;;;;9.35;4.78;;;;;;;;;;7364938;19;20051;-73
2023/08/11 20:23:20;;;;;;;8.15;3.97;;;;;;;;;;7358823;19;20006;-73
2023/08/11 20:25:45;;;;;;;8.23;3.90;;;;;;;;;;7367263;19;20304;-74
2023/08/11 20:28:10;;;;;;;6.77;3.63;;;;;;;;;;7362838;19;20036;-76
2023/08/11 20:30:35;;;;;;;8.00;4.13;;;;;;;;;;7363441;19;20017;-73
2023/08/11 20:33:00;;;;;;;8.45;3.80;;;;;;;;;;7367531;19;20018;-74
2023/08/11 20:35:27;;;;;;;7.77;3.67;;;;;;;;;;7359511;19;20455;-76
2023/08/11 20:37:53;;;;;;;7.68;3.78;;;;;;;;;;7365580;19;19995;-75
2023/08/11 20:40:18;;;;;;;6.57;3.78;;;;;;;;;;7364109;19;20817;-75
2023/08/11 20:42:43;;;;;;;8.60;3.70;;;;;;;;;;7363448;19;20015;-75
2023/08/11 20:45:08;;;;;;;7.87;3.93;;;;;;;;;;7360375;19;20171;-76
2023/08/11 20:47:34;;;;;;;9.93;5.38;;;;;;;;;;7367360;19;20003;-76
2023/08/11 20:49:59;;;;;;;9.47;5.80;;;;;;;;;;7366906;19;19995;-73
2023/08/11 20:52:24;;;;;;;10.63;5.70;;;;;;;;;;7364728;19;19991;-76
2023/08/11 20:54:49;;;;;;;10.05;5.68;;;;;;;;;;7361026;19;20155;-75
2023/08/11 20:57:15;;;;;;;9.40;5.80;;;;;;;;;;7364271;19;20009;-76
2023/08/11 20:59:40;;;;;;;11.25;4.53;;;;;;;;;;7363882;19;19998;-76
2023/08/11 21:02:05;;;;;;;11.57;4.87;;;;;;;;;;7360206;19;19995;-75
2023/08/11 21:04:31;;;;;;;7.88;3.75;;;;;;;;;;7362922;19;20317;-75
2023/08/11 21:06:56;;;;;;;10.70;5.00;;;;;;;;;;7360119;19;20010;-76
2023/08/11 21:09:21;;;;;;;9.90;4.57;;;;;;;;;;7362207;19;20005;-75
2023/08/11 21:11:46;;;;;;;9.85;4.00;;;;;;;;;;7365334;19;20822;-75
2023/08/11 21:14:12;;;;;;;7.82;4.03;;;;;;;;;;7356273;19;19998;-75
2023/08/11 21:16:40;;;;;;;10.27;5.10;;;;;;;;;;7362756;19;20379;-77
2023/08/11 21:19:06;;;;;;;13.80;5.60;;;;;;;;;;7363302;19;20014;-76
2023/08/11 21:21:32;;;;;;;9.00;4.75;;;;;;;;;;7362452;19;20005;-76
2023/08/11 21:23:57;;;;;;;9.27;5.00;;;;;;;;;;7362726;19;19998;-75
2023/08/11 21:26:22;;;;;;;14.32;5.68;;;;;;;;;;7362373;19;19999;-76
2023/08/11 21:28:47;;;;;;;9.13;5.13;;;;;;;;;;7364825;19;20010;-75
2023/08/11 21:31:12;;;;;;;9.83;4.67;;;;;;;;;;7360848;19;20005;-75
2023/08/11 21:33:37;;;;;;;7.43;4.50;;;;;;;;;;7364045;19;20707;-76
2023/08/11 21:36:03;;;;;;;9.97;4.20;;;;;;;;;;7360671;19;20440;-75
2023/08/11 21:38:28;;;;;;;8.77;4.47;;;;;;;;;;7363483;19;20733;-76
2023/08/11 21:40:53;;;;;;;10.47;4.17;;;;;;;;;;7365002;19;20034;-76
2023/08/11 21:43:18;;;;;;;8.80;4.28;;;;;;;;;;7362049;19;20465;-75
2023/08/11 21:45:43;;;;;;;10.40;4.80;;;;;;;;;;7362465;19;20036;-75
2023/08/11 21:48:09;;;;;;;10.10;4.70;;;;;;;;;;7363644;19;20061;-75
2023/08/11 21:50:34;;;;;;;9.07;4.47;;;;;;;;;;7363994;19;20235;-75
2023/08/11 21:52:59;;;;;;;7.90;4.75;;;;;;;;;;7363533;19;20003;-75
2023/08/11 21:55:25;;;;;;;8.80;4.55;;;;;;;;;;7361856;19;20459;-75
2023/08/11 21:57:50;;;;;;;7.37;4.50;;;;;;;;;;7364750;19;19994;-75
2023/08/11 22:00:15;;;;;;;13.70;4.60;;;;;;;;;;7358317;19;20258;-75
2023/08/11 22:02:40;;;;;;;8.20;4.38;;;;;;;;;;7359121;19;20016;-75
2023/08/11 22:05:06;;;;;;;10.27;4.17;;;;;;;;;;7362077;19;20499;-75
2023/08/11 22:07:31;;;;;;;7.00;3.72;;;;;;;;;;7356538;19;20415;-75
2023/08/11 22:09:56;;;;;;;7.88;3.65;;;;;;;;;;7362670;19;20006;-75
2023/08/11 22:12:21;;;;;;;10.90;4.78;;;;;;;;;;7357529;19;20009;-75
2023/08/11 22:14:47;;;;;;;6.03;3.47;;;;;;;;;;7350218;19;20003;-75
2023/08/11 22:17:13;;;;;;;9.00;4.13;;;;;;;;;;7360806;19;20242;-74
2023/08/11 22:19:45;;;;;;;7.95;3.88;;;;;;;;;;7363611;19;20298;-75
2023/08/11 22:22:13;;;;;;;7.35;3.83;;;;;;;;;;7358923;19;20007;-75
2023/08/11 22:24:38;;;;;;;6.70;3.65;;;;;;;;;;7362573;19;20006;-74
2023/08/11 22:27:04;;;;;;;7.77;3.80;;;;;;;;;;7361146;19;19995;-76
2023/08/11 22:29:29;;;;;;;5.85;3.30;;;;;;;;;;7357121;19;19994;-73
2023/08/11 22:31:54;;;;;;;6.93;3.27;;;;;;;;;;7361369;19;20026;-73
2023/08/11 22:34:19;;;;;;;8.07;3.22;;;;;;;;;;7356682;19;20619;-73
2023/08/11 22:36:45;;;;;;;5.93;2.97;;;;;;;;;;7363171;19;20017;-73
2023/08/11 22:39:10;;;;;;;6.57;3.20;;;;;;;;;;7362348;19;20303;-74
2023/08/11 22:41:35;;;;;;;6.03;3.50;;;;;;;;;;7356587;19;20032;-73
2023/08/11 22:44:00;;;;;;;7.30;3.33;;;;;;;;;;7360488;19;20006;-74
2023/08/11 22:46:25;;;;;;;8.52;3.13;;;;;;;;;;7360375;19;20017;-74
2023/08/11 22:48:50;;;;;;;5.87;3.40;;;;;;;;;;7356982;19;20011;-75
2023/08/11 22:51:15;;;;;;;7.23;3.50;;;;;;;;;;7361065;19;20447;-74
2023/08/11 22:53:41;;;;;;;7.30;3.80;;;;;;;;;;7357566;19;20032;-74
2023/08/11 22:56:06;;;;;;;9.07;4.00;;;;;;;;;;7362666;19;20017;-74
2023/08/11 22:58:31;;;;;;;5.43;3.20;;;;;;;;;;7360814;19;20013;-75
2023/08/11 23:00:56;;;;;;;7.63;3.30;;;;;;;;;;7353885;19;21113;-75
2023/08/11 23:03:21;;;;;;;8.63;3.70;;;;;;;;;;7362395;19;20366;-74
2023/08/11 23:05:47;;;;;;;8.37;4.00;;;;;;;;;;7362605;19;19995;-75
2023/08/11 23:08:12;;;;;;;6.63;3.57;;;;;;;;;;7362370;19;20028;-74
2023/08/11 23:10:37;;;;;;;8.13;3.90;;;;;;;;;;7362380;19;20251;-74
2023/08/11 23:13:02;;;;;;;9.10;3.80;;;;;;;;;;7359759;19;20002;-75
2023/08/11 23:15:28;;;;;;;13.75;4.65;;;;;;;;;;7357950;19;20023;-74
2023/08/11 23:17:53;;;;;;;7.70;3.67;;;;;;;;;;7363931;19;20022;-74
2023/08/11 23:20:18;;;;;;;6.30;3.80;;;;;;;;;;7356458;19;20058;-74
2023/08/11 23:22:43;;;;;;;7.70;3.75;;;;;;;;;;7360151;19;20235;-74
2023/08/11 23:25:09;;;;;;;7.18;3.55;;;;;;;;;;7357743;19;20006;-74
2023/08/11 23:27:34;;;;;;;8.93;3.95;;;;;;;;;;7354037;19;19998;-75
2023/08/11 23:30:00;;;;;;;7.45;3.80;;;;;;;;;;7360410;19;20118;-75
2023/08/11 23:32:26;;;;;;;5.82;3.20;;;;;;;;;;7358806;19;19999;-74
2023/08/11 23:34:51;;;;;;;7.65;3.80;;;;;;;;;;7362658;19;20011;-74
2023/08/11 23:37:17;;;;;;;7.80;3.73;;;;;;;;;;7362358;19;19990;-75
2023/08/11 23:39:43;;;;;;;8.27;4.18;;;;;;;;;;7358602;19;20676;-74
2023/08/11 23:42:08;;;;;;;6.80;4.00;;;;;;;;;;7359563;19;20403;-74
2023/08/11 23:44:33;;;;;;;6.93;3.90;;;;;;;;;;7355895;19;20023;-74
2023/08/11 23:46:58;;;;;;;6.97;3.93;;;;;;;;;;7361224;19;20015;-75
2023/08/11 23:49:24;;;;;;;8.23;4.20;;;;;;;;;;7358320;19;20027;-74
2023/08/11 23:51:49;;;;;;;6.97;4.07;;;;;;;;;;7363071;19;19999;-74
2023/08/11 23:54:14;;;;;;;7.23;4.27;;;;;;;;;;7358058;19;20514;-76
2023/08/11 23:56:39;;;;;;;9.30;4.70;;;;;;;;;;7359975;19;20460;-75
2023/08/11 23:59:04;;;;;;;8.17;4.67;;;;;;;;;;7357539;19;20474;-74
